sensor_id;sensor_type;location;lat;lon;timestamp;temperature;humidity
12833;DHT22;6483;51.310;4.462;2023-03-23T00:01:19;12.90;99.90
12833;DHT22;6483;51.310;4.462;2023-03-23T00:03:46;12.90;99.90
12833;DHT22;6483;51.310;4.462;2023-03-23T00:06:13;12.90;99.90
12833;DHT22;6483;51.310;4.462;2023-03-23T00:08:44;12.90;99.90
12833;DHT22;6483;51.310;4.462;2023-03-23T00:11:32;12.90;99.90
12833;DHT22;6483;51.310;4.462;2023-03-23T00:13:59;12.80;99.90
12833;DHT22;6483;51.310;4.462;2023-03-23T00:16:31;12.70;99.90
12833;DHT22;6483;51.310;4.462;2023-03-23T00:19:00;12.70;99.90
12833;DHT22;6483;51.310;4.462;2023-03-23T00:21:44;12.80;99.90
12833;DHT22;6483;51.310;4.462;2023-03-23T00:24:17;12.80;99.90
12833;DHT22;6483;51.310;4.462;2023-03-23T00:26:47;12.90;99.90
12833;DHT22;6483;51.310;4.462;2023-03-23T00:29:19;13.00;99.90
12833;DHT22;6483;51.310;4.462;2023-03-23T00:31:47;13.00;99.90
12833;DHT22;6483;51.310;4.462;2023-03-23T00:34:23;13.10;99.90
12833;DHT22;6483;51.310;4.462;2023-03-23T00:36:52;13.10;99.90
12833;DHT22;6483;51.310;4.462;2023-03-23T00:39:19;13.10;99.90
12833;DHT22;6483;51.310;4.462;2023-03-23T00:41:48;13.10;99.90
12833;DHT22;6483;51.310;4.462;2023-03-23T00:44:14;13.10;99.90
12833;DHT22;6483;51.310;4.462;2023-03-23T00:46:48;13.10;99.90
12833;DHT22;6483;51.310;4.462;2023-03-23T00:49:17;13.10;99.90
12833;DHT22;6483;51.310;4.462;2023-03-23T00:51:44;13.20;99.90
12833;DHT22;6483;51.310;4.462;2023-03-23T00:54:10;13.20;99.90
12833;DHT22;6483;51.310;4.462;2023-03-23T00:56:37;13.20;99.90
12833;DHT22;6483;51.310;4.462;2023-03-23T00:59:04;13.20;99.90
12833;DHT22;6483;51.310;4.462;2023-03-23T01:01:32;13.30;99.90
12833;DHT22;6483;51.310;4.462;2023-03-23T01:03:59;13.30;99.90
12833;DHT22;6483;51.310;4.462;2023-03-23T01:06:33;13.20;99.90
12833;DHT22;6483;51.310;4.462;2023-03-23T01:09:01;13.20;99.90
12833;DHT22;6483;51.310;4.462;2023-03-23T01:11:29;13.20;99.90
12833;DHT22;6483;51.310;4.462;2023-03-23T01:13:54;13.20;99.90
12833;DHT22;6483;51.310;4.462;2023-03-23T01:16:24;13.20;99.90
12833;DHT22;6483;51.310;4.462;2023-03-23T01:18:49;13.20;99.90
12833;DHT22;6483;51.310;4.462;2023-03-23T01:21:18;13.20;99.90
12833;DHT22;6483;51.310;4.462;2023-03-23T01:23:48;13.30;99.90
12833;DHT22;6483;51.310;4.462;2023-03-23T01:26:20;13.20;99.90
12833;DHT22;6483;51.310;4.462;2023-03-23T01:28:49;13.20;99.90
12833;DHT22;6483;51.310;4.462;2023-03-23T01:31:20;13.30;99.90
12833;DHT22;6483;51.310;4.462;2023-03-23T01:33:46;13.20;99.90
12833;DHT22;6483;51.310;4.462;2023-03-23T01:36:14;13.20;99.90
12833;DHT22;6483;51.310;4.462;2023-03-23T01:38:42;13.20;99.90
12833;DHT22;6483;51.310;4.462;2023-03-23T01:41:08;13.20;99.90
12833;DHT22;6483;51.310;4.462;2023-03-23T01:43:35;13.20;99.90
12833;DHT22;6483;51.310;4.462;2023-03-23T01:46:01;13.20;99.90
12833;DHT22;6483;51.310;4.462;2023-03-23T01:48:33;13.20;99.90
12833;DHT22;6483;51.310;4.462;2023-03-23T01:51:04;13.20;99.90
12833;DHT22;6483;51.310;4.462;2023-03-23T01:53:37;13.20;99.90
12833;DHT22;6483;51.310;4.462;2023-03-23T01:56:06;13.20;99.90
12833;DHT22;6483;51.310;4.462;2023-03-23T01:58:34;13.20;99.90
12833;DHT22;6483;51.310;4.462;2023-03-23T02:01:05;13.20;99.90
12833;DHT22;6483;51.310;4.462;2023-03-23T02:03:35;13.30;99.90
12833;DHT22;6483;51.310;4.462;2023-03-23T02:06:02;13.20;99.90
12833;DHT22;6483;51.310;4.462;2023-03-23T02:08:29;13.20;99.90
12833;DHT22;6483;51.310;4.462;2023-03-23T02:10:58;13.30;99.90
12833;DHT22;6483;51.310;4.462;2023-03-23T02:13:24;13.20;99.90
12833;DHT22;6483;51.310;4.462;2023-03-23T02:25:22;13.30;99.90
12833;DHT22;6483;51.310;4.462;2023-03-23T02:28:24;13.30;99.90
12833;DHT22;6483;51.310;4.462;2023-03-23T02:31:04;13.30;99.90
12833;DHT22;6483;51.310;4.462;2023-03-23T02:34:00;13.30;99.90
12833;DHT22;6483;51.310;4.462;2023-03-23T02:36:39;13.20;99.90
12833;DHT22;6483;51.310;4.462;2023-03-23T02:39:33;13.20;99.90
12833;DHT22;6483;51.310;4.462;2023-03-23T02:42:08;13.20;99.90
12833;DHT22;6483;51.310;4.462;2023-03-23T02:44:44;13.20;99.90
12833;DHT22;6483;51.310;4.462;2023-03-23T02:47:17;13.20;99.90
12833;DHT22;6483;51.310;4.462;2023-03-23T02:49:46;13.10;99.90
12833;DHT22;6483;51.310;4.462;2023-03-23T02:52:18;13.20;99.90
12833;DHT22;6483;51.310;4.462;2023-03-23T02:54:47;13.20;99.90
12833;DHT22;6483;51.310;4.462;2023-03-23T02:57:16;13.20;99.90
12833;DHT22;6483;51.310;4.462;2023-03-23T02:59:42;13.10;99.90
12833;DHT22;6483;51.310;4.462;2023-03-23T03:04:46;13.10;99.90
12833;DHT22;6483;51.310;4.462;2023-03-23T03:07:38;13.10;99.90
12833;DHT22;6483;51.310;4.462;2023-03-23T03:15:48;13.00;99.90
12833;DHT22;6483;51.310;4.462;2023-03-23T03:21:07;14.50;99.90
12833;DHT22;6483;51.310;4.462;2023-03-23T03:23:37;13.10;99.90
12833;DHT22;6483;51.310;4.462;2023-03-23T03:26:04;13.10;99.90
12833;DHT22;6483;51.310;4.462;2023-03-23T03:28:32;13.10;99.90
12833;DHT22;6483;51.310;4.462;2023-03-23T03:31:01;13.10;99.90
12833;DHT22;6483;51.310;4.462;2023-03-23T03:33:28;13.10;99.90
12833;DHT22;6483;51.310;4.462;2023-03-23T03:35:59;13.10;99.90
12833;DHT22;6483;51.310;4.462;2023-03-23T03:38:26;13.10;99.90
12833;DHT22;6483;51.310;4.462;2023-03-23T03:40:55;13.10;99.90
12833;DHT22;6483;51.310;4.462;2023-03-23T03:43:21;13.10;99.90
12833;DHT22;6483;51.310;4.462;2023-03-23T03:45:47;13.10;99.90
12833;DHT22;6483;51.310;4.462;2023-03-23T03:48:13;13.10;99.90
12833;DHT22;6483;51.310;4.462;2023-03-23T03:50:39;13.00;99.90
12833;DHT22;6483;51.310;4.462;2023-03-23T03:53:06;13.00;99.90
12833;DHT22;6483;51.310;4.462;2023-03-23T03:55:35;13.00;99.90
12833;DHT22;6483;51.310;4.462;2023-03-23T03:58:03;13.00;99.90
12833;DHT22;6483;51.310;4.462;2023-03-23T04:00:30;13.00;99.90
12833;DHT22;6483;51.310;4.462;2023-03-23T04:02:56;13.00;99.90
12833;DHT22;6483;51.310;4.462;2023-03-23T04:05:25;13.00;99.90
12833;DHT22;6483;51.310;4.462;2023-03-23T04:07:54;13.00;99.90
12833;DHT22;6483;51.310;4.462;2023-03-23T04:10:27;13.00;99.90
12833;DHT22;6483;51.310;4.462;2023-03-23T04:12:56;12.90;99.90
12833;DHT22;6483;51.310;4.462;2023-03-23T04:15:22;12.90;99.90
12833;DHT22;6483;51.310;4.462;2023-03-23T04:17:48;12.90;99.90
12833;DHT22;6483;51.310;4.462;2023-03-23T04:20:15;12.80;99.90
12833;DHT22;6483;51.310;4.462;2023-03-23T04:22:47;12.60;99.90
12833;DHT22;6483;51.310;4.462;2023-03-23T04:25:19;12.50;99.90
12833;DHT22;6483;51.310;4.462;2023-03-23T04:27:57;12.30;99.90
12833;DHT22;6483;51.310;4.462;2023-03-23T04:30:24;12.20;99.90
12833;DHT22;6483;51.310;4.462;2023-03-23T04:32:51;12.10;99.90
12833;DHT22;6483;51.310;4.462;2023-03-23T04:35:21;12.00;99.90
12833;DHT22;6483;51.310;4.462;2023-03-23T04:37:48;11.90;99.90
12833;DHT22;6483;51.310;4.462;2023-03-23T04:40:18;11.90;99.90
12833;DHT22;6483;51.310;4.462;2023-03-23T04:42:45;12.00;99.90
12833;DHT22;6483;51.310;4.462;2023-03-23T04:45:13;12.10;99.90
12833;DHT22;6483;51.310;4.462;2023-03-23T04:47:41;12.20;99.90
12833;DHT22;6483;51.310;4.462;2023-03-23T04:50:12;12.20;99.90
12833;DHT22;6483;51.310;4.462;2023-03-23T04:52:39;12.30;99.90
12833;DHT22;6483;51.310;4.462;2023-03-23T04:55:15;12.30;99.90
12833;DHT22;6483;51.310;4.462;2023-03-23T04:57:44;12.30;99.90
12833;DHT22;6483;51.310;4.462;2023-03-23T05:00:11;12.40;99.90
12833;DHT22;6483;51.310;4.462;2023-03-23T05:02:42;12.40;99.90
12833;DHT22;6483;51.310;4.462;2023-03-23T05:05:15;12.50;99.90
12833;DHT22;6483;51.310;4.462;2023-03-23T05:07:43;12.50;99.90
12833;DHT22;6483;51.310;4.462;2023-03-23T05:10:16;12.50;99.90
12833;DHT22;6483;51.310;4.462;2023-03-23T05:12:44;12.60;99.90
12833;DHT22;6483;51.310;4.462;2023-03-23T05:15:12;12.60;99.90
12833;DHT22;6483;51.310;4.462;2023-03-23T05:17:38;12.60;99.90
12833;DHT22;6483;51.310;4.462;2023-03-23T05:20:07;12.60;99.90
12833;DHT22;6483;51.310;4.462;2023-03-23T05:22:37;12.70;99.90
12833;DHT22;6483;51.310;4.462;2023-03-23T05:25:08;12.60;99.90
12833;DHT22;6483;51.310;4.462;2023-03-23T05:27:37;12.60;99.90
12833;DHT22;6483;51.310;4.462;2023-03-23T05:30:05;12.60;99.90
12833;DHT22;6483;51.310;4.462;2023-03-23T05:32:34;12.60;99.90
12833;DHT22;6483;51.310;4.462;2023-03-23T05:35:12;12.50;99.90
12833;DHT22;6483;51.310;4.462;2023-03-23T05:37:41;12.40;99.90
12833;DHT22;6483;51.310;4.462;2023-03-23T05:40:08;12.40;99.90
12833;DHT22;6483;51.310;4.462;2023-03-23T05:42:37;12.40;99.90
12833;DHT22;6483;51.310;4.462;2023-03-23T05:45:06;12.40;99.90
12833;DHT22;6483;51.310;4.462;2023-03-23T05:47:32;12.50;99.90
12833;DHT22;6483;51.310;4.462;2023-03-23T05:49:58;12.50;99.90
12833;DHT22;6483;51.310;4.462;2023-03-23T05:52:24;12.50;99.90
12833;DHT22;6483;51.310;4.462;2023-03-23T05:54:51;12.40;99.90
12833;DHT22;6483;51.310;4.462;2023-03-23T05:57:17;12.40;99.90
12833;DHT22;6483;51.310;4.462;2023-03-23T05:59:49;12.50;99.90
12833;DHT22;6483;51.310;4.462;2023-03-23T06:02:16;12.40;99.90
12833;DHT22;6483;51.310;4.462;2023-03-23T06:04:43;12.40;99.90
12833;DHT22;6483;51.310;4.462;2023-03-23T06:07:27;12.40;99.90
12833;DHT22;6483;51.310;4.462;2023-03-23T06:09:53;12.30;99.90
12833;DHT22;6483;51.310;4.462;2023-03-23T06:12:18;12.10;99.90
12833;DHT22;6483;51.310;4.462;2023-03-23T06:14:48;11.90;99.90
12833;DHT22;6483;51.310;4.462;2023-03-23T06:17:15;11.70;99.90
12833;DHT22;6483;51.310;4.462;2023-03-23T06:19:46;12.30;99.90
12833;DHT22;6483;51.310;4.462;2023-03-23T06:22:14;11.50;99.90
12833;DHT22;6483;51.310;4.462;2023-03-23T06:24:39;11.40;99.90
12833;DHT22;6483;51.310;4.462;2023-03-23T06:27:05;11.40;99.90
12833;DHT22;6483;51.310;4.462;2023-03-23T06:29:30;11.30;99.90
12833;DHT22;6483;51.310;4.462;2023-03-23T06:31:59;11.20;99.90
12833;DHT22;6483;51.310;4.462;2023-03-23T06:34:26;11.20;99.90
12833;DHT22;6483;51.310;4.462;2023-03-23T06:36:51;11.10;99.90
12833;DHT22;6483;51.310;4.462;2023-03-23T06:39:18;11.00;99.90
12833;DHT22;6483;51.310;4.462;2023-03-23T06:41:43;10.80;99.90
12833;DHT22;6483;51.310;4.462;2023-03-23T06:44:09;10.60;99.90
12833;DHT22;6483;51.310;4.462;2023-03-23T06:46:39;10.50;99.90
12833;DHT22;6483;51.310;4.462;2023-03-23T06:49:05;10.40;99.90
12833;DHT22;6483;51.310;4.462;2023-03-23T06:51:31;10.30;99.90
12833;DHT22;6483;51.310;4.462;2023-03-23T06:53:56;10.40;99.90
12833;DHT22;6483;51.310;4.462;2023-03-23T06:56:23;10.30;99.90
12833;DHT22;6483;51.310;4.462;2023-03-23T06:58:49;10.40;99.90
12833;DHT22;6483;51.310;4.462;2023-03-23T07:01:15;10.30;99.90
12833;DHT22;6483;51.310;4.462;2023-03-23T07:03:44;10.40;99.90
12833;DHT22;6483;51.310;4.462;2023-03-23T07:06:11;10.40;99.90
12833;DHT22;6483;51.310;4.462;2023-03-23T07:08:40;10.30;99.90
12833;DHT22;6483;51.310;4.462;2023-03-23T07:11:15;10.30;99.90
12833;DHT22;6483;51.310;4.462;2023-03-23T07:13:42;10.30;99.90
12833;DHT22;6483;51.310;4.462;2023-03-23T07:16:08;10.30;99.90
12833;DHT22;6483;51.310;4.462;2023-03-23T07:18:40;10.30;99.90
12833;DHT22;6483;51.310;4.462;2023-03-23T07:21:12;10.30;99.90
12833;DHT22;6483;51.310;4.462;2023-03-23T07:23:38;10.30;99.90
12833;DHT22;6483;51.310;4.462;2023-03-23T07:26:07;10.30;99.90
12833;DHT22;6483;51.310;4.462;2023-03-23T07:28:34;10.30;99.90
12833;DHT22;6483;51.310;4.462;2023-03-23T07:31:00;10.20;99.90
12833;DHT22;6483;51.310;4.462;2023-03-23T07:33:29;10.20;99.90
12833;DHT22;6483;51.310;4.462;2023-03-23T07:35:54;10.10;99.90
12833;DHT22;6483;51.310;4.462;2023-03-23T07:38:23;10.10;99.90
12833;DHT22;6483;51.310;4.462;2023-03-23T07:40:51;10.10;99.90
12833;DHT22;6483;51.310;4.462;2023-03-23T07:43:17;10.10;99.90
12833;DHT22;6483;51.310;4.462;2023-03-23T07:45:44;10.10;99.90
12833;DHT22;6483;51.310;4.462;2023-03-23T07:48:13;10.10;99.90
12833;DHT22;6483;51.310;4.462;2023-03-23T07:50:38;10.10;99.90
12833;DHT22;6483;51.310;4.462;2023-03-23T07:53:05;10.10;99.90
12833;DHT22;6483;51.310;4.462;2023-03-23T07:55:34;10.20;99.90
12833;DHT22;6483;51.310;4.462;2023-03-23T07:58:02;10.20;99.90
12833;DHT22;6483;51.310;4.462;2023-03-23T08:00:28;10.30;99.90
12833;DHT22;6483;51.310;4.462;2023-03-23T08:02:56;10.30;99.90
12833;DHT22;6483;51.310;4.462;2023-03-23T08:05:24;10.30;99.90
12833;DHT22;6483;51.310;4.462;2023-03-23T08:07:52;10.30;99.90
12833;DHT22;6483;51.310;4.462;2023-03-23T08:10:23;10.40;99.90
12833;DHT22;6483;51.310;4.462;2023-03-23T08:12:54;10.40;99.90
12833;DHT22;6483;51.310;4.462;2023-03-23T08:15:21;10.40;99.90
12833;DHT22;6483;51.310;4.462;2023-03-23T08:17:48;10.50;99.90
12833;DHT22;6483;51.310;4.462;2023-03-23T08:20:14;10.50;99.90
12833;DHT22;6483;51.310;4.462;2023-03-23T08:22:43;10.40;99.90
12833;DHT22;6483;51.310;4.462;2023-03-23T08:25:13;10.40;99.90
12833;DHT22;6483;51.310;4.462;2023-03-23T08:27:40;10.30;99.90
12833;DHT22;6483;51.310;4.462;2023-03-23T08:30:14;10.30;99.90
12833;DHT22;6483;51.310;4.462;2023-03-23T08:32:40;10.40;99.90
12833;DHT22;6483;51.310;4.462;2023-03-23T08:35:08;10.50;99.90
12833;DHT22;6483;51.310;4.462;2023-03-23T08:37:37;10.70;99.90
12833;DHT22;6483;51.310;4.462;2023-03-23T08:40:05;11.00;99.90
12833;DHT22;6483;51.310;4.462;2023-03-23T08:42:38;11.20;99.90
12833;DHT22;6483;51.310;4.462;2023-03-23T08:45:10;11.20;99.90
12833;DHT22;6483;51.310;4.462;2023-03-23T08:47:40;11.30;99.90
12833;DHT22;6483;51.310;4.462;2023-03-23T08:50:28;11.30;99.90
12833;DHT22;6483;51.310;4.462;2023-03-23T08:52:57;11.60;99.90
12833;DHT22;6483;51.310;4.462;2023-03-23T08:55:23;12.10;99.90
12833;DHT22;6483;51.310;4.462;2023-03-23T08:57:52;14.00;99.90
12833;DHT22;6483;51.310;4.462;2023-03-23T09:00:21;12.70;99.90
12833;DHT22;6483;51.310;4.462;2023-03-23T09:02:51;12.90;99.90
12833;DHT22;6483;51.310;4.462;2023-03-23T09:05:23;13.00;99.90
12833;DHT22;6483;51.310;4.462;2023-03-23T09:07:54;13.00;99.90
12833;DHT22;6483;51.310;4.462;2023-03-23T09:10:20;13.30;99.90
12833;DHT22;6483;51.310;4.462;2023-03-23T09:12:47;13.50;99.90
12833;DHT22;6483;51.310;4.462;2023-03-23T09:15:15;13.50;99.90
12833;DHT22;6483;51.310;4.462;2023-03-23T09:17:43;13.90;99.90
12833;DHT22;6483;51.310;4.462;2023-03-23T09:20:12;13.90;99.90
12833;DHT22;6483;51.310;4.462;2023-03-23T09:22:44;14.40;99.90
12833;DHT22;6483;51.310;4.462;2023-03-23T09:25:11;14.80;99.90
12833;DHT22;6483;51.310;4.462;2023-03-23T09:27:40;14.50;99.90
12833;DHT22;6483;51.310;4.462;2023-03-23T09:30:12;14.00;99.90
12833;DHT22;6483;51.310;4.462;2023-03-23T09:32:40;14.00;99.90
12833;DHT22;6483;51.310;4.462;2023-03-23T09:35:07;14.10;99.90
12833;DHT22;6483;51.310;4.462;2023-03-23T09:37:34;14.60;99.90
12833;DHT22;6483;51.310;4.462;2023-03-23T09:40:02;14.70;99.90
12833;DHT22;6483;51.310;4.462;2023-03-23T09:45:36;15.40;99.90
12833;DHT22;6483;51.310;4.462;2023-03-23T09:48:38;15.10;99.90
12833;DHT22;6483;51.310;4.462;2023-03-23T09:51:31;14.50;99.90
12833;DHT22;6483;51.310;4.462;2023-03-23T09:54:49;14.50;99.90
12833;DHT22;6483;51.310;4.462;2023-03-23T09:56:50;14.60;99.90
12833;DHT22;6483;51.310;4.462;2023-03-23T10:02:28;14.60;99.90
12833;DHT22;6483;51.310;4.462;2023-03-23T10:04:58;14.50;99.90
12833;DHT22;6483;51.310;4.462;2023-03-23T10:07:26;14.60;99.90
12833;DHT22;6483;51.310;4.462;2023-03-23T10:09:56;14.50;99.90
12833;DHT22;6483;51.310;4.462;2023-03-23T10:13:07;14.50;99.90
12833;DHT22;6483;51.310;4.462;2023-03-23T10:15:41;15.00;99.90
12833;DHT22;6483;51.310;4.462;2023-03-23T10:18:17;15.20;99.90
12833;DHT22;6483;51.310;4.462;2023-03-23T10:20:56;15.20;99.90
12833;DHT22;6483;51.310;4.462;2023-03-23T10:24:01;15.40;99.90
12833;DHT22;6483;51.310;4.462;2023-03-23T10:33:03;15.50;99.90
12833;DHT22;6483;51.310;4.462;2023-03-23T10:35:45;15.40;99.90
12833;DHT22;6483;51.310;4.462;2023-03-23T10:38:20;15.00;99.90
12833;DHT22;6483;51.310;4.462;2023-03-23T10:40:55;14.60;99.90
12833;DHT22;6483;51.310;4.462;2023-03-23T10:43:24;14.50;99.90
12833;DHT22;6483;51.310;4.462;2023-03-23T10:45:57;14.60;99.90
12833;DHT22;6483;51.310;4.462;2023-03-23T10:48:31;14.50;99.90
12833;DHT22;6483;51.310;4.462;2023-03-23T10:51:06;14.50;99.90
12833;DHT22;6483;51.310;4.462;2023-03-23T10:53:37;14.60;99.90
12833;DHT22;6483;51.310;4.462;2023-03-23T10:56:04;14.70;99.90
12833;DHT22;6483;51.310;4.462;2023-03-23T10:58:35;14.80;99.90
12833;DHT22;6483;51.310;4.462;2023-03-23T11:01:04;14.80;99.90
12833;DHT22;6483;51.310;4.462;2023-03-23T11:03:44;14.90;99.90
12833;DHT22;6483;51.310;4.462;2023-03-23T11:06:23;15.00;99.90
12833;DHT22;6483;51.310;4.462;2023-03-23T11:08:56;14.80;99.90
12833;DHT22;6483;51.310;4.462;2023-03-23T11:11:29;15.20;99.90
12833;DHT22;6483;51.310;4.462;2023-03-23T11:14:15;15.50;99.90
12833;DHT22;6483;51.310;4.462;2023-03-23T11:16:50;16.00;99.90
12833;DHT22;6483;51.310;4.462;2023-03-23T11:19:23;16.30;93.80
12833;DHT22;6483;51.310;4.462;2023-03-23T11:22:07;16.30;90.80
12833;DHT22;6483;51.310;4.462;2023-03-23T11:24:50;16.20;85.90
12833;DHT22;6483;51.310;4.462;2023-03-23T11:27:18;15.80;95.60
12833;DHT22;6483;51.310;4.462;2023-03-23T11:29:53;15.90;90.40
12833;DHT22;6483;51.310;4.462;2023-03-23T11:32:25;15.70;96.00
12833;DHT22;6483;51.310;4.462;2023-03-23T11:35:07;16.00;94.10
12833;DHT22;6483;51.310;4.462;2023-03-23T11:37:52;16.10;93.60
12833;DHT22;6483;51.310;4.462;2023-03-23T11:40:24;15.80;93.60
12833;DHT22;6483;51.310;4.462;2023-03-23T11:43:00;15.40;99.90
12833;DHT22;6483;51.310;4.462;2023-03-23T11:46:05;15.00;99.90
12833;DHT22;6483;51.310;4.462;2023-03-23T11:48:40;15.00;99.90
12833;DHT22;6483;51.310;4.462;2023-03-23T11:51:30;14.90;99.90
12833;DHT22;6483;51.310;4.462;2023-03-23T11:56:48;15.20;99.90
12833;DHT22;6483;51.310;4.462;2023-03-23T11:59:39;15.10;99.90
12833;DHT22;6483;51.310;4.462;2023-03-23T12:07:39;15.50;99.90
12833;DHT22;6483;51.310;4.462;2023-03-23T12:10:26;15.50;99.90
12833;DHT22;6483;51.310;4.462;2023-03-23T12:13:21;15.60;99.90
12833;DHT22;6483;51.310;4.462;2023-03-23T12:16:11;16.80;99.90
12833;DHT22;6483;51.310;4.462;2023-03-23T12:18:57;18.50;80.40
12833;DHT22;6483;51.310;4.462;2023-03-23T12:27:10;16.20;87.60
12833;DHT22;6483;51.310;4.462;2023-03-23T12:38:33;14.60;99.90
12833;DHT22;6483;51.310;4.462;2023-03-23T12:41:22;14.40;99.90
12833;DHT22;6483;51.310;4.462;2023-03-23T12:44:08;14.20;99.90
12833;DHT22;6483;51.310;4.462;2023-03-23T12:49:40;14.40;99.90
12833;DHT22;6483;51.310;4.462;2023-03-23T12:52:43;14.90;99.90
12833;DHT22;6483;51.310;4.462;2023-03-23T12:55:34;15.40;99.90
12833;DHT22;6483;51.310;4.462;2023-03-23T12:58:24;16.10;99.90
12833;DHT22;6483;51.310;4.462;2023-03-23T13:04:31;17.80;61.10
12833;DHT22;6483;51.310;4.462;2023-03-23T13:07:05;18.60;59.30
12833;DHT22;6483;51.310;4.462;2023-03-23T13:09:39;19.10;30.70
12833;DHT22;6483;51.310;4.462;2023-03-23T13:12:07;19.40;27.90
12833;DHT22;6483;51.310;4.462;2023-03-23T13:25:49;17.20;78.30
12833;DHT22;6483;51.310;4.462;2023-03-23T13:28:26;17.60;63.70
12833;DHT22;6483;51.310;4.462;2023-03-23T13:31:12;18.60;55.00
12833;DHT22;6483;51.310;4.462;2023-03-23T13:33:57;19.30;46.30
12833;DHT22;6483;51.310;4.462;2023-03-23T13:36:52;19.20;28.50
12833;DHT22;6483;51.310;4.462;2023-03-23T13:39:34;19.20;32.50
12833;DHT22;6483;51.310;4.462;2023-03-23T13:47:28;19.60;24.20
12833;DHT22;6483;51.310;4.462;2023-03-23T13:50:12;20.20;17.90
12833;DHT22;6483;51.310;4.462;2023-03-23T14:11:09;20.00;2.00
12833;DHT22;6483;51.310;4.462;2023-03-23T14:13:46;19.10;8.30
12833;DHT22;6483;51.310;4.462;2023-03-23T14:16:38;17.90;27.40
12833;DHT22;6483;51.310;4.462;2023-03-23T14:19:25;17.90;44.20
12833;DHT22;6483;51.310;4.462;2023-03-23T14:21:57;18.00;36.30
12833;DHT22;6483;51.310;4.462;2023-03-23T14:24:25;17.50;42.80
12833;DHT22;6483;51.310;4.462;2023-03-23T14:26:53;17.10;53.40
12833;DHT22;6483;51.310;4.462;2023-03-23T14:29:26;16.90;60.30
12833;DHT22;6483;51.310;4.462;2023-03-23T14:31:56;16.50;55.90
12833;DHT22;6483;51.310;4.462;2023-03-23T14:34:25;16.50;70.30
12833;DHT22;6483;51.310;4.462;2023-03-23T14:36:55;16.60;66.40
12833;DHT22;6483;51.310;4.462;2023-03-23T14:39:28;16.50;70.40
12833;DHT22;6483;51.310;4.462;2023-03-23T14:42:00;16.30;69.20
12833;DHT22;6483;51.310;4.462;2023-03-23T14:44:30;16.90;67.70
12833;DHT22;6483;51.310;4.462;2023-03-23T14:46:57;18.60;39.90
12833;DHT22;6483;51.310;4.462;2023-03-23T14:49:34;19.10;13.90
12833;DHT22;6483;51.310;4.462;2023-03-23T14:52:13;19.10;9.20
12833;DHT22;6483;51.310;4.462;2023-03-23T14:54:45;18.90;10.80
12833;DHT22;6483;51.310;4.462;2023-03-23T14:57:19;19.00;13.30
12833;DHT22;6483;51.310;4.462;2023-03-23T14:59:49;20.10;8.40
12833;DHT22;6483;51.310;4.462;2023-03-23T15:02:36;20.50;4.90
12833;DHT22;6483;51.310;4.462;2023-03-23T15:07:52;20.50;1.00
12833;DHT22;6483;51.310;4.462;2023-03-23T15:10:23;20.00;6.00
12833;DHT22;6483;51.310;4.462;2023-03-23T15:12:50;20.00;6.80
12833;DHT22;6483;51.310;4.462;2023-03-23T15:15:26;19.10;10.60
12833;DHT22;6483;51.310;4.462;2023-03-23T15:17:52;18.70;22.70
12833;DHT22;6483;51.310;4.462;2023-03-23T15:20:50;18.80;22.90
12833;DHT22;6483;51.310;4.462;2023-03-23T15:23:21;18.30;29.30
12833;DHT22;6483;51.310;4.462;2023-03-23T15:25:52;18.50;35.40
12833;DHT22;6483;51.310;4.462;2023-03-23T15:28:31;19.00;30.00
12833;DHT22;6483;51.310;4.462;2023-03-23T15:31:01;18.70;26.80
12833;DHT22;6483;51.310;4.462;2023-03-23T15:33:34;18.20;38.10
12833;DHT22;6483;51.310;4.462;2023-03-23T15:36:13;18.10;47.50
12833;DHT22;6483;51.310;4.462;2023-03-23T15:38:43;18.30;47.90
12833;DHT22;6483;51.310;4.462;2023-03-23T15:41:23;18.00;47.30
12833;DHT22;6483;51.310;4.462;2023-03-23T15:43:51;16.90;74.20
12833;DHT22;6483;51.310;4.462;2023-03-23T15:46:19;16.30;83.80
12833;DHT22;6483;51.310;4.462;2023-03-23T15:51:29;16.60;90.70
12833;DHT22;6483;51.310;4.462;2023-03-23T15:53:56;16.70;91.40
12833;DHT22;6483;51.310;4.462;2023-03-23T15:56:24;17.00;90.10
12833;DHT22;6483;51.310;4.462;2023-03-23T15:58:51;17.10;83.50
12833;DHT22;6483;51.310;4.462;2023-03-23T16:01:24;17.20;84.10
12833;DHT22;6483;51.310;4.462;2023-03-23T16:03:59;16.50;91.10
12833;DHT22;6483;51.310;4.462;2023-03-23T16:06:29;16.00;99.90
12833;DHT22;6483;51.310;4.462;2023-03-23T16:08:59;15.80;99.90
12833;DHT22;6483;51.310;4.462;2023-03-23T16:11:28;15.60;99.90
12833;DHT22;6483;51.310;4.462;2023-03-23T16:13:54;15.50;99.90
12833;DHT22;6483;51.310;4.462;2023-03-23T16:16:33;15.40;99.90
12833;DHT22;6483;51.310;4.462;2023-03-23T16:19:00;15.30;99.90
12833;DHT22;6483;51.310;4.462;2023-03-23T16:21:28;15.30;99.90
12833;DHT22;6483;51.310;4.462;2023-03-23T16:23:56;15.30;99.90
12833;DHT22;6483;51.310;4.462;2023-03-23T16:26:24;15.30;99.90
12833;DHT22;6483;51.310;4.462;2023-03-23T16:28:51;15.40;99.90
12833;DHT22;6483;51.310;4.462;2023-03-23T16:31:16;15.30;99.90
12833;DHT22;6483;51.310;4.462;2023-03-23T16:33:42;15.30;99.90
12833;DHT22;6483;51.310;4.462;2023-03-23T16:36:11;15.20;99.90
12833;DHT22;6483;51.310;4.462;2023-03-23T16:38:37;15.10;99.90
12833;DHT22;6483;51.310;4.462;2023-03-23T16:41:03;14.70;99.90
12833;DHT22;6483;51.310;4.462;2023-03-23T16:43:32;14.30;99.90
12833;DHT22;6483;51.310;4.462;2023-03-23T16:46:00;14.10;99.90
12833;DHT22;6483;51.310;4.462;2023-03-23T16:48:26;14.00;99.90
12833;DHT22;6483;51.310;4.462;2023-03-23T16:50:52;13.90;99.90
12833;DHT22;6483;51.310;4.462;2023-03-23T16:53:20;13.90;99.90
12833;DHT22;6483;51.310;4.462;2023-03-23T16:55:46;13.90;99.90
12833;DHT22;6483;51.310;4.462;2023-03-23T16:58:16;13.90;99.90
12833;DHT22;6483;51.310;4.462;2023-03-23T17:00:50;14.00;99.90
12833;DHT22;6483;51.310;4.462;2023-03-23T17:03:18;14.00;99.90
12833;DHT22;6483;51.310;4.462;2023-03-23T17:05:44;14.00;99.90
12833;DHT22;6483;51.310;4.462;2023-03-23T17:08:13;14.00;99.90
12833;DHT22;6483;51.310;4.462;2023-03-23T17:10:40;14.00;99.90
12833;DHT22;6483;51.310;4.462;2023-03-23T17:13:09;14.10;99.90
12833;DHT22;6483;51.310;4.462;2023-03-23T17:15:37;14.00;99.90
12833;DHT22;6483;51.310;4.462;2023-03-23T17:18:04;14.00;99.90
12833;DHT22;6483;51.310;4.462;2023-03-23T17:20:30;14.00;99.90
12833;DHT22;6483;51.310;4.462;2023-03-23T17:22:56;14.00;99.90
12833;DHT22;6483;51.310;4.462;2023-03-23T17:25:25;14.10;99.90
12833;DHT22;6483;51.310;4.462;2023-03-23T17:27:51;14.10;99.90
12833;DHT22;6483;51.310;4.462;2023-03-23T17:30:17;14.10;99.90
12833;DHT22;6483;51.310;4.462;2023-03-23T17:32:43;14.10;99.90
12833;DHT22;6483;51.310;4.462;2023-03-23T17:35:15;14.20;99.90
12833;DHT22;6483;51.310;4.462;2023-03-23T17:37:41;14.20;99.90
12833;DHT22;6483;51.310;4.462;2023-03-23T17:40:09;14.20;99.90
12833;DHT22;6483;51.310;4.462;2023-03-23T17:42:36;14.20;99.90
12833;DHT22;6483;51.310;4.462;2023-03-23T17:45:07;14.20;99.90
12833;DHT22;6483;51.310;4.462;2023-03-23T17:47:37;14.10;99.90
12833;DHT22;6483;51.310;4.462;2023-03-23T17:50:05;11.60;99.90
12833;DHT22;6483;51.310;4.462;2023-03-23T17:52:31;14.20;99.90
12833;DHT22;6483;51.310;4.462;2023-03-23T17:54:59;14.20;99.90
12833;DHT22;6483;51.310;4.462;2023-03-23T17:57:25;14.30;99.90